Time,TemperatureF,DewpointF,PressureIn,WindDirection,WindDirectionDegrees,WindSpeedMPH,WindSpeedGustMPH,Humidity,HourlyPrecipIn,Conditions,Clouds,dailyrainin,SolarRadiationWatts/m^2,SoftwareType,DateUTC
2013-10-17 00:10:00,49.8,39.0,30.05,NNE,31,5.0,12.0,66,0.00,,,0.00,0,weatherlink.com 1.10,2013-10-17 07:10:00,
2013-10-17 00:25:00,50.6,38.0,30.05,NNE,26,5.0,8.0,63,0.00,,,0.00,0,weatherlink.com 1.10,2013-10-17 07:25:00,
2013-10-17 00:40:00,50.8,38.0,30.05,NNE,28,6.0,10.0,63,0.00,,,0.00,0,weatherlink.com 1.10,2013-10-17 07:40:00,
2013-10-17 00:55:00,49.2,39.0,30.05,NE,36,5.0,10.0,67,0.00,,,0.00,0,weatherlink.com 1.10,2013-10-17 07:55:00,
2013-10-17 01:10:00,50.3,38.0,30.05,NE,42,6.0,8.0,63,0.00,,,0.00,0,weatherlink.com 1.10,2013-10-17 08:10:00,
2013-10-17 01:25:00,49.8,38.0,30.05,NE,39,7.0,11.0,64,0.00,,,0.00,0,weatherlink.com 1.10,2013-10-17 08:25:00,
2013-10-17 01:40:00,48.9,38.0,30.05,NE,35,8.0,11.0,66,0.00,,,0.00,0,weatherlink.com 1.10,2013-10-17 08:40:00,
2013-10-17 01:55:00,48.7,38.0,30.05,NNE,29,10.0,12.0,66,0.00,,,0.00,0,weatherlink.com 1.10,2013-10-17 08:55:00,
2013-10-17 02:11:00,47.9,38.0,30.05,NE,34,10.0,12.0,68,0.00,,,0.00,0,weatherlink.com 1.10,2013-10-17 09:11:00,
2013-10-17 02:25:00,47.7,38.0,30.05,NNE,30,8.0,14.0,69,0.00,,,0.00,0,weatherlink.com 1.10,2013-10-17 09:25:00,
2013-10-17 02:55:00,47.7,38.0,30.04,ENE,69,9.0,12.0,68,0.00,,,0.00,0,weatherlink.com 1.10,2013-10-17 09:55:00,
2013-10-17 03:10:00,47.8,37.0,30.04,ENE,76,10.0,13.0,67,0.00,,,0.00,0,weatherlink.com 1.10,2013-10-17 10:10:00,
2013-10-17 03:25:00,47.3,37.0,30.03,NNE,27,7.0,13.0,68,0.00,,,0.00,0,weatherlink.com 1.10,2013-10-17 10:25:00,
2013-10-17 03:40:00,47.2,37.0,30.03,NE,46,11.0,13.0,68,0.00,,,0.00,0,weatherlink.com 1.10,2013-10-17 10:40:00,
2013-10-17 03:56:00,47.5,37.0,30.04,NNE,31,4.0,10.0,67,0.00,,,0.00,0,weatherlink.com 1.10,2013-10-17 10:56:00,
2013-10-17 04:11:00,46.2,37.0,30.03,NNE,13,8.0,9.0,70,0.00,,,0.00,0,weatherlink.com 1.10,2013-10-17 11:11:00,
2013-10-17 04:26:00,46.1,37.0,30.03,North,9,7.0,11.0,70,0.00,,,0.00,0,weatherlink.com 1.10,2013-10-17 11:26:00,
2013-10-17 04:53:00,45.6,37.0,30.03,NE,44,11.0,13.0,71,0.00,,,0.00,0,weatherlink.com 1.10,2013-10-17 11:53:00,
2013-10-17 04:56:00,45.6,37.0,30.03,NE,40,11.0,13.0,72,0.00,,,0.00,0,weatherlink.com 1.10,2013-10-17 11:56:00,
2013-10-17 05:11:00,45.8,37.0,30.03,NE,36,9.0,12.0,71,0.00,,,0.00,0,weatherlink.com 1.10,2013-10-17 12:11:00,
2013-10-17 05:26:00,45.4,36.0,30.04,NNE,33,9.0,12.0,71,0.00,,,0.00,0,weatherlink.com 1.10,2013-10-17 12:26:00,
2013-10-17 05:41:00,45.4,36.0,30.05,NNE,31,8.0,11.0,71,0.00,,,0.00,0,weatherlink.com 1.10,2013-10-17 12:41:00,
2013-10-17 05:56:00,45.2,37.0,30.05,NE,34,4.0,11.0,72,0.00,,,0.00,0,weatherlink.com 1.10,2013-10-17 12:56:00,
2013-10-17 06:11:00,45.4,36.0,30.05,NE,40,7.0,13.0,71,0.00,,,0.00,0,weatherlink.com 1.10,2013-10-17 13:11:00,
2013-10-17 06:26:00,45.0,36.0,30.05,NE,49,8.0,12.0,72,0.00,,,0.00,0,weatherlink.com 1.10,2013-10-17 13:26:00,
2013-10-17 06:41:00,45.2,36.0,30.05,NNE,30,10.0,11.0,71,0.00,,,0.00,0,weatherlink.com 1.10,2013-10-17 13:41:00,
2013-10-17 06:56:00,44.7,37.0,30.05,NNE,30,8.0,14.0,73,0.00,,,0.00,0,weatherlink.com 1.10,2013-10-17 13:56:00,
2013-10-17 07:11:00,44.7,37.0,30.05,ENE,68,7.0,13.0,73,0.00,,,0.00,0,weatherlink.com 1.10,2013-10-17 14:11:00,
2013-10-17 07:26:00,44.1,36.0,30.05,NE,52,10.0,14.0,74,0.00,,,0.00,5,weatherlink.com 1.10,2013-10-17 14:26:00,
2013-10-17 07:41:00,44.3,37.0,30.05,NE,55,6.0,12.0,74,0.00,,,0.00,14,weatherlink.com 1.10,2013-10-17 14:41:00,
2013-10-17 07:56:00,44.7,37.0,30.06,NE,49,8.0,10.0,73,0.00,,,0.00,21,weatherlink.com 1.10,2013-10-17 14:56:00,
2013-10-17 08:11:00,44.9,37.0,30.07,NE,39,11.0,12.0,73,0.00,,,0.00,26,weatherlink.com 1.10,2013-10-17 15:11:00,
2013-10-17 08:26:00,45.9,37.0,30.07,NNE,23,8.0,10.0,72,0.00,,,0.00,130,weatherlink.com 1.10,2013-10-17 15:26:00,
2013-10-17 08:41:00,47.3,38.0,30.08,NE,50,8.0,9.0,70,0.00,,,0.00,188,weatherlink.com 1.10,2013-10-17 15:41:00,
2013-10-17 08:56:00,49.2,39.0,30.08,NE,35,7.0,11.0,67,0.00,,,0.00,250,weatherlink.com 1.10,2013-10-17 15:56:00,
2013-10-17 09:11:00,51.9,39.0,30.08,NE,46,4.0,8.0,62,0.00,,,0.00,297,weatherlink.com 1.10,2013-10-17 16:11:00,
2013-10-17 09:26:00,54.1,40.0,30.09,NE,35,0.0,6.0,60,0.00,,,0.00,345,weatherlink.com 1.10,2013-10-17 16:26:00,
2013-10-17 09:42:00,56.4,41.0,30.08,NNE,28,2.0,6.0,57,0.00,,,0.00,388,weatherlink.com 1.10,2013-10-17 16:42:00,
2013-10-17 09:57:00,57.7,42.0,30.08,East,86,0.0,4.0,56,0.00,,,0.00,429,weatherlink.com 1.10,2013-10-17 16:57:00,
2013-10-17 10:12:00,58.2,40.0,30.08,South,169,1.0,3.0,52,0.00,,,0.00,471,weatherlink.com 1.10,2013-10-17 17:12:00,
2013-10-17 10:27:00,58.8,39.0,30.08,SSW,197,2.0,3.0,48,0.00,,,0.00,506,weatherlink.com 1.10,2013-10-17 17:27:00,
2013-10-17 10:42:00,60.6,41.0,30.08,South,190,0.0,2.0,48,0.00,,,0.00,540,weatherlink.com 1.10,2013-10-17 17:42:00,
2013-10-17 10:57:00,58.6,43.0,30.08,SW,236,1.0,5.0,56,0.00,,,0.00,570,weatherlink.com 1.10,2013-10-17 17:57:00,
2013-10-17 11:12:00,58.9,41.0,30.08,WSW,254,1.0,3.0,51,0.00,,,0.00,599,weatherlink.com 1.10,2013-10-17 18:12:00,
2013-10-17 11:27:00,59.7,44.0,30.08,SW,234,3.0,5.0,56,0.00,,,0.00,621,weatherlink.com 1.10,2013-10-17 18:27:00,
2013-10-17 11:42:00,57.6,47.0,30.08,West,270,5.0,8.0,67,0.00,,,0.00,642,weatherlink.com 1.10,2013-10-17 18:42:00,
2013-10-17 11:57:00,58.7,47.0,30.08,West,261,3.0,5.0,65,0.00,,,0.00,659,weatherlink.com 1.10,2013-10-17 18:57:00,
2013-10-17 12:12:00,59.4,43.0,30.08,SW,233,2.0,5.0,55,0.00,,,0.00,671,weatherlink.com 1.10,2013-10-17 19:12:00,
2013-10-17 12:27:00,60.0,40.0,30.07,SW,225,3.0,4.0,48,0.00,,,0.00,682,weatherlink.com 1.10,2013-10-17 19:27:00,
2013-10-17 12:42:00,61.2,38.0,30.06,WSW,242,3.0,5.0,42,0.00,,,0.00,687,weatherlink.com 1.10,2013-10-17 19:42:00,
2013-10-17 12:57:00,60.9,41.0,30.06,WSW,244,3.0,6.0,48,0.00,,,0.00,689,weatherlink.com 1.10,2013-10-17 19:57:00,
2013-10-17 13:12:00,60.5,43.0,30.05,SW,227,0.0,5.0,53,0.00,,,0.00,687,weatherlink.com 1.10,2013-10-17 20:12:00,
2013-10-17 13:27:00,60.0,45.0,30.05,SW,225,3.0,5.0,58,0.00,,,0.00,682,weatherlink.com 1.10,2013-10-17 20:27:00,
2013-10-17 13:42:00,61.1,45.0,30.04,SW,227,3.0,4.0,56,0.00,,,0.00,671,weatherlink.com 1.10,2013-10-17 20:42:00,
2013-10-17 13:57:00,60.2,49.0,30.04,SW,229,4.0,5.0,66,0.00,,,0.00,659,weatherlink.com 1.10,2013-10-17 20:57:00,
2013-10-17 14:12:00,59.6,50.0,30.03,SW,236,5.0,6.0,70,0.00,,,0.00,642,weatherlink.com 1.10,2013-10-17 21:12:00,
2013-10-17 14:27:00,58.8,51.0,30.03,WSW,253,2.0,7.0,75,0.00,,,0.00,621,weatherlink.com 1.10,2013-10-17 21:27:00,
2013-10-17 14:42:00,59.2,52.0,30.03,SW,236,4.0,7.0,76,0.00,,,0.00,596,weatherlink.com 1.10,2013-10-17 21:42:00,
2013-10-17 14:57:00,58.8,52.0,30.02,SW,234,5.0,7.0,79,0.00,,,0.00,568,weatherlink.com 1.10,2013-10-17 21:57:00,
2013-10-17 15:12:00,58.8,53.0,30.01,WSW,242,1.0,6.0,80,0.00,,,0.00,536,weatherlink.com 1.10,2013-10-17 22:12:00,
2013-10-17 15:27:00,58.7,52.0,30.01,West,262,0.0,5.0,77,0.00,,,0.00,503,weatherlink.com 1.10,2013-10-17 22:27:00,
2013-10-17 15:42:00,61.2,52.0,30.01,SSW,193,2.0,4.0,73,0.00,,,0.00,464,weatherlink.com 1.10,2013-10-17 22:42:00,
2013-10-17 15:57:00,62.0,52.0,30.00,South,187,2.0,6.0,70,0.00,,,0.00,427,weatherlink.com 1.10,2013-10-17 22:57:00,
2013-10-17 16:12:00,62.0,52.0,30.00,SSW,200,1.0,5.0,69,0.00,,,0.00,385,weatherlink.com 1.10,2013-10-17 23:12:00,
2013-10-17 16:28:00,61.8,51.0,30.00,South,178,1.0,6.0,69,0.00,,,0.00,341,weatherlink.com 1.10,2013-10-17 23:28:00,
2013-10-17 16:43:00,60.5,52.0,29.99,ESE,107,5.0,8.0,74,0.00,,,0.00,297,weatherlink.com 1.10,2013-10-17 23:43:00,
2013-10-17 16:58:00,61.2,52.0,29.99,South,173,1.0,5.0,71,0.00,,,0.00,250,weatherlink.com 1.10,2013-10-17 23:58:00,
2013-10-17 17:13:00,62.2,52.0,29.98,ESE,113,2.0,4.0,69,0.00,,,0.00,200,weatherlink.com 1.10,2013-10-18 00:13:00,
2013-10-17 17:28:00,62.1,52.0,29.98,South,186,1.0,7.0,70,0.00,,,0.00,146,weatherlink.com 1.10,2013-10-18 00:28:00,
2013-10-17 17:43:00,61.0,52.0,29.97,South,186,2.0,5.0,71,0.00,,,0.00,90,weatherlink.com 1.10,2013-10-18 00:43:00,
2013-10-17 17:58:00,60.5,51.0,29.97,South,185,0.0,4.0,72,0.00,,,0.00,46,weatherlink.com 1.10,2013-10-18 00:58:00,
2013-10-17 18:13:00,59.0,51.0,29.97,SE,138,3.0,5.0,74,0.00,,,0.00,18,weatherlink.com 1.10,2013-10-18 01:13:00,
2013-10-17 18:28:00,57.6,50.0,29.97,SE,146,2.0,6.0,76,0.00,,,0.00,9,weatherlink.com 1.10,2013-10-18 01:28:00,
2013-10-17 18:43:00,56.5,49.0,29.98,SE,146,0.0,1.0,77,0.00,,,0.00,0,weatherlink.com 1.10,2013-10-18 01:43:00,
2013-10-17 18:58:00,54.7,47.0,29.98,SE,146,0.0,0.0,76,0.00,,,0.00,0,weatherlink.com 1.10,2013-10-18 01:58:00,
2013-10-17 19:13:00,53.2,47.0,29.98,SE,146,0.0,2.0,80,0.00,,,0.00,0,weatherlink.com 1.10,2013-10-18 02:13:00,
2013-10-17 19:28:00,51.7,47.0,29.98,SE,146,1.0,2.0,83,0.00,,,0.00,0,weatherlink.com 1.10,2013-10-18 02:28:00,
2013-10-17 19:43:00,50.7,46.0,29.98,SE,146,0.0,2.0,85,0.00,,,0.00,0,weatherlink.com 1.10,2013-10-18 02:43:00,
2013-10-17 19:58:00,50.0,47.0,29.98,SE,146,0.0,1.0,88,0.00,,,0.00,0,weatherlink.com 1.10,2013-10-18 02:58:00,
2013-10-17 20:13:00,49.5,46.0,29.98,SE,146,0.0,0.0,86,0.00,,,0.00,0,weatherlink.com 1.10,2013-10-18 03:13:00,
2013-10-17 20:28:00,48.8,46.0,29.98,SE,146,0.0,1.0,89,0.00,,,0.00,0,weatherlink.com 1.10,2013-10-18 03:28:00,
2013-10-17 20:43:00,48.4,46.0,29.99,SE,146,0.0,2.0,92,0.00,,,0.00,0,weatherlink.com 1.10,2013-10-18 03:43:00,
2013-10-17 20:58:00,48.9,46.0,29.99,SE,146,0.0,2.0,91,0.00,,,0.00,0,weatherlink.com 1.10,2013-10-18 03:58:00,
2013-10-17 21:13:00,48.5,46.0,29.99,SE,146,0.0,1.0,89,0.00,,,0.00,0,weatherlink.com 1.10,2013-10-18 04:13:00,
2013-10-17 21:28:00,48.1,45.0,30.00,SE,146,0.0,1.0,90,0.00,,,0.00,0,weatherlink.com 1.10,2013-10-18 04:28:00,
2013-10-17 21:43:00,47.7,45.0,30.00,SE,146,0.0,0.0,91,0.00,,,0.00,0,weatherlink.com 1.10,2013-10-18 04:43:00,
2013-10-17 21:58:00,47.9,46.0,30.00,SE,146,0.0,0.0,93,0.00,,,0.00,0,weatherlink.com 1.10,2013-10-18 04:58:00,
2013-10-17 22:13:00,47.7,45.0,30.00,SE,146,0.0,0.0,89,0.00,,,0.00,0,weatherlink.com 1.10,2013-10-18 05:13:00,
2013-10-17 22:28:00,47.0,45.0,29.99,SE,146,0.0,0.0,92,0.00,,,0.00,0,weatherlink.com 1.10,2013-10-18 05:28:00,
2013-10-17 22:43:00,47.0,45.0,29.99,SE,146,0.0,2.0,92,0.00,,,0.00,0,weatherlink.com 1.10,2013-10-18 05:43:00,
2013-10-17 22:58:00,46.9,45.0,29.99,SE,146,0.0,1.0,92,0.00,,,0.00,0,weatherlink.com 1.10,2013-10-18 05:58:00,
2013-10-17 23:13:00,46.7,44.0,29.99,SE,146,0.0,2.0,91,0.00,,,0.00,0,weatherlink.com 1.10,2013-10-18 06:13:00,
2013-10-17 23:28:00,46.9,45.0,29.99,NE,43,2.0,5.0,92,0.00,,,0.00,0,weatherlink.com 1.10,2013-10-18 06:28:00,
2013-10-17 23:43:00,46.9,45.0,30.00,NE,43,0.0,2.0,91,0.00,,,0.00,0,weatherlink.com 1.10,2013-10-18 06:43:00,
2013-10-17 23:58:00,46.5,44.0,29.99,NE,43,0.0,4.0,92,0.00,,,0.00,0,weatherlink.com 1.10,2013-10-18 06:58:00,